sensor_id;sensor_type;location;lat;lon;timestamp;pressure;altitude;pressure_sealevel;temperature
10598;BMP180;5346;48.766;8.674;2024-01-10T00:00:25;94476.00;;;-7.10
10598;BMP180;5346;48.766;8.674;2024-01-10T00:03:00;94471.00;;;-7.00
10598;BMP180;5346;48.766;8.674;2024-01-10T00:05:34;94482.00;;;-7.00
10598;BMP180;5346;48.766;8.674;2024-01-10T00:08:02;94478.00;;;-7.00
10598;BMP180;5346;48.766;8.674;2024-01-10T00:10:36;94476.00;;;-7.00
10598;BMP180;5346;48.766;8.674;2024-01-10T00:13:04;94466.00;;;-7.00
10598;BMP180;5346;48.766;8.674;2024-01-10T00:15:38;94466.00;;;-7.10
10598;BMP180;5346;48.766;8.674;2024-01-10T00:18:05;94460.00;;;-7.10
10598;BMP180;5346;48.766;8.674;2024-01-10T00:20:33;94451.00;;;-7.00
10598;BMP180;5346;48.766;8.674;2024-01-10T00:23:13;94450.00;;;-7.00
10598;BMP180;5346;48.766;8.674;2024-01-10T00:25:48;94460.00;;;-6.90
10598;BMP180;5346;48.766;8.674;2024-01-10T00:28:23;94444.00;;;-6.90
10598;BMP180;5346;48.766;8.674;2024-01-10T00:30:57;94444.00;;;-7.00
10598;BMP180;5346;48.766;8.674;2024-01-10T00:33:31;94446.00;;;-7.00
10598;BMP180;5346;48.766;8.674;2024-01-10T00:36:05;94441.00;;;-7.20
10598;BMP180;5346;48.766;8.674;2024-01-10T00:38:33;94441.00;;;-7.10
10598;BMP180;5346;48.766;8.674;2024-01-10T00:41:08;94446.00;;;-7.20
10598;BMP180;5346;48.766;8.674;2024-01-10T00:43:36;94440.00;;;-7.20
10598;BMP180;5346;48.766;8.674;2024-01-10T00:46:11;94442.00;;;-7.20
10598;BMP180;5346;48.766;8.674;2024-01-10T00:48:45;94441.00;;;-7.30
10598;BMP180;5346;48.766;8.674;2024-01-10T00:51:13;94438.00;;;-7.20
10598;BMP180;5346;48.766;8.674;2024-01-10T00:53:48;94443.00;;;-7.30
10598;BMP180;5346;48.766;8.674;2024-01-10T00:56:22;94435.00;;;-7.20
10598;BMP180;5346;48.766;8.674;2024-01-10T00:58:49;94444.00;;;-7.10
10598;BMP180;5346;48.766;8.674;2024-01-10T01:01:25;94436.00;;;-7.20
10598;BMP180;5346;48.766;8.674;2024-01-10T01:03:53;94428.00;;;-7.10
10598;BMP180;5346;48.766;8.674;2024-01-10T01:06:27;94433.00;;;-7.20
10598;BMP180;5346;48.766;8.674;2024-01-10T01:09:01;94437.00;;;-7.10
10598;BMP180;5346;48.766;8.674;2024-01-10T01:11:35;94441.00;;;-7.10
10598;BMP180;5346;48.766;8.674;2024-01-10T01:14:09;94447.00;;;-6.90
10598;BMP180;5346;48.766;8.674;2024-01-10T01:16:36;94442.00;;;-7.00
10598;BMP180;5346;48.766;8.674;2024-01-10T01:19:11;94446.00;;;-7.20
10598;BMP180;5346;48.766;8.674;2024-01-10T01:21:38;94438.00;;;-7.10
10598;BMP180;5346;48.766;8.674;2024-01-10T01:24:13;94426.00;;;-7.20
10598;BMP180;5346;48.766;8.674;2024-01-10T01:26:47;94426.00;;;-7.10
10598;BMP180;5346;48.766;8.674;2024-01-10T01:29:14;94426.00;;;-7.00
10598;BMP180;5346;48.766;8.674;2024-01-10T01:31:49;94422.00;;;-7.20
10598;BMP180;5346;48.766;8.674;2024-01-10T01:34:17;94420.00;;;-7.20
10598;BMP180;5346;48.766;8.674;2024-01-10T01:36:51;94426.00;;;-7.20
10598;BMP180;5346;48.766;8.674;2024-01-10T01:39:19;94429.00;;;-7.20
10598;BMP180;5346;48.766;8.674;2024-01-10T01:41:53;94438.00;;;-7.30
10598;BMP180;5346;48.766;8.674;2024-01-10T01:44:20;94435.00;;;-7.20
10598;BMP180;5346;48.766;8.674;2024-01-10T01:46:48;94436.00;;;-7.20
10598;BMP180;5346;48.766;8.674;2024-01-10T01:49:23;94434.00;;;-7.20
10598;BMP180;5346;48.766;8.674;2024-01-10T01:51:53;94442.00;;;-7.20
10598;BMP180;5346;48.766;8.674;2024-01-10T01:54:27;94434.00;;;-7.10
10598;BMP180;5346;48.766;8.674;2024-01-10T01:57:02;94426.00;;;-7.10
10598;BMP180;5346;48.766;8.674;2024-01-10T01:59:36;94435.00;;;-7.20
10598;BMP180;5346;48.766;8.674;2024-01-10T02:02:10;94435.00;;;-7.10
10598;BMP180;5346;48.766;8.674;2024-01-10T02:04:47;94301.00;;;-7.20
10598;BMP180;5346;48.766;8.674;2024-01-10T02:07:21;94425.00;;;-7.10
10598;BMP180;5346;48.766;8.674;2024-01-10T02:09:55;94427.00;;;-6.90
10598;BMP180;5346;48.766;8.674;2024-01-10T02:12:29;94436.00;;;-7.10
10598;BMP180;5346;48.766;8.674;2024-01-10T02:14:57;94418.00;;;-7.10
10598;BMP180;5346;48.766;8.674;2024-01-10T02:17:31;94424.00;;;-7.00
10598;BMP180;5346;48.766;8.674;2024-01-10T02:20:12;94422.00;;;-7.00
10598;BMP180;5346;48.766;8.674;2024-01-10T02:22:47;94428.00;;;-7.30
10598;BMP180;5346;48.766;8.674;2024-01-10T02:25:28;94418.00;;;-7.20
10598;BMP180;5346;48.766;8.674;2024-01-10T02:28:03;94418.00;;;-7.20
10598;BMP180;5346;48.766;8.674;2024-01-10T02:30:31;94421.00;;;-7.30
10598;BMP180;5346;48.766;8.674;2024-01-10T02:33:05;94422.00;;;-7.40
10598;BMP180;5346;48.766;8.674;2024-01-10T02:35:39;94421.00;;;-7.40
10598;BMP180;5346;48.766;8.674;2024-01-10T02:38:13;94418.00;;;-7.50
10598;BMP180;5346;48.766;8.674;2024-01-10T02:40:47;94400.00;;;-7.50
10598;BMP180;5346;48.766;8.674;2024-01-10T02:43:21;94412.00;;;-7.60
10598;BMP180;5346;48.766;8.674;2024-01-10T02:45:48;94410.00;;;-7.50
10598;BMP180;5346;48.766;8.674;2024-01-10T02:48:30;94409.00;;;-7.50
10598;BMP180;5346;48.766;8.674;2024-01-10T02:51:04;94402.00;;;-7.50
10598;BMP180;5346;48.766;8.674;2024-01-10T02:53:38;94413.00;;;-7.40
10598;BMP180;5346;48.766;8.674;2024-01-10T02:56:12;94403.00;;;-7.40
10598;BMP180;5346;48.766;8.674;2024-01-10T02:58:39;94398.00;;;-7.40
10598;BMP180;5346;48.766;8.674;2024-01-10T03:01:14;94404.00;;;-7.40
10598;BMP180;5346;48.766;8.674;2024-01-10T03:03:49;94397.00;;;-7.30
10598;BMP180;5346;48.766;8.674;2024-01-10T03:06:23;94401.00;;;-7.20
10598;BMP180;5346;48.766;8.674;2024-01-10T03:08:51;94407.00;;;-7.30
10598;BMP180;5346;48.766;8.674;2024-01-10T03:11:25;94406.00;;;-7.00
10598;BMP180;5346;48.766;8.674;2024-01-10T03:14:02;94401.00;;;-7.20
10598;BMP180;5346;48.766;8.674;2024-01-10T03:16:37;94406.00;;;-6.90
10598;BMP180;5346;48.766;8.674;2024-01-10T03:19:05;94397.00;;;-6.80
10598;BMP180;5346;48.766;8.674;2024-01-10T03:21:45;94395.00;;;-6.60
10598;BMP180;5346;48.766;8.674;2024-01-10T03:24:27;94386.00;;;-6.60
10598;BMP180;5346;48.766;8.674;2024-01-10T03:27:01;94387.00;;;-6.80
10598;BMP180;5346;48.766;8.674;2024-01-10T03:29:29;94392.00;;;-6.70
10598;BMP180;5346;48.766;8.674;2024-01-10T03:32:04;94393.00;;;-6.80
10598;BMP180;5346;48.766;8.674;2024-01-10T03:34:38;94390.00;;;-6.70
10598;BMP180;5346;48.766;8.674;2024-01-10T03:37:12;94384.00;;;-6.80
10598;BMP180;5346;48.766;8.674;2024-01-10T03:39:39;94384.00;;;-7.00
10598;BMP180;5346;48.766;8.674;2024-01-10T03:42:14;94387.00;;;-6.90
10598;BMP180;5346;48.766;8.674;2024-01-10T03:44:43;94378.00;;;-6.90
10598;BMP180;5346;48.766;8.674;2024-01-10T03:47:17;94400.00;;;-6.90
10598;BMP180;5346;48.766;8.674;2024-01-10T03:49:51;94390.00;;;-7.10
10598;BMP180;5346;48.766;8.674;2024-01-10T03:52:25;94387.00;;;-7.30
10598;BMP180;5346;48.766;8.674;2024-01-10T03:54:52;94393.00;;;-7.00
10598;BMP180;5346;48.766;8.674;2024-01-10T03:57:27;94396.00;;;-7.20
10598;BMP180;5346;48.766;8.674;2024-01-10T03:59:54;94395.00;;;-7.20
10598;BMP180;5346;48.766;8.674;2024-01-10T04:02:29;94402.00;;;-7.30
10598;BMP180;5346;48.766;8.674;2024-01-10T04:05:12;94404.00;;;-7.20
10598;BMP180;5346;48.766;8.674;2024-01-10T04:07:49;94401.00;;;-7.30
10598;BMP180;5346;48.766;8.674;2024-01-10T04:10:24;94403.00;;;-7.10
10598;BMP180;5346;48.766;8.674;2024-01-10T04:12:52;94398.00;;;-7.20
10598;BMP180;5346;48.766;8.674;2024-01-10T04:15:28;94401.00;;;-7.20
10598;BMP180;5346;48.766;8.674;2024-01-10T04:17:55;94404.00;;;-7.10
10598;BMP180;5346;48.766;8.674;2024-01-10T04:20:30;94412.00;;;-7.20
10598;BMP180;5346;48.766;8.674;2024-01-10T04:23:11;94406.00;;;-7.20
10598;BMP180;5346;48.766;8.674;2024-01-10T04:25:48;94420.00;;;-7.20
10598;BMP180;5346;48.766;8.674;2024-01-10T04:28:22;94408.00;;;-7.20
10598;BMP180;5346;48.766;8.674;2024-01-10T04:30:56;94416.00;;;-7.00
10598;BMP180;5346;48.766;8.674;2024-01-10T04:33:30;94412.00;;;-6.90
10598;BMP180;5346;48.766;8.674;2024-01-10T04:35:57;94415.00;;;-7.00
10598;BMP180;5346;48.766;8.674;2024-01-10T04:38:32;94419.00;;;-6.80
10598;BMP180;5346;48.766;8.674;2024-01-10T04:41:06;94418.00;;;-6.90
10598;BMP180;5346;48.766;8.674;2024-01-10T04:43:41;94417.00;;;-6.80
10598;BMP180;5346;48.766;8.674;2024-01-10T04:46:09;94422.00;;;-6.70
10598;BMP180;5346;48.766;8.674;2024-01-10T04:48:37;94412.00;;;-6.70
10598;BMP180;5346;48.766;8.674;2024-01-10T04:51:18;94405.00;;;-6.90
10598;BMP180;5346;48.766;8.674;2024-01-10T04:53:46;94404.00;;;-6.90
10598;BMP180;5346;48.766;8.674;2024-01-10T04:56:20;94404.00;;;-6.70
10598;BMP180;5346;48.766;8.674;2024-01-10T04:58:48;94407.00;;;-6.90
10598;BMP180;5346;48.766;8.674;2024-01-10T05:01:22;94407.00;;;-7.00
10598;BMP180;5346;48.766;8.674;2024-01-10T05:03:57;94403.00;;;-7.10
10598;BMP180;5346;48.766;8.674;2024-01-10T05:06:25;94407.00;;;-7.20
10598;BMP180;5346;48.766;8.674;2024-01-10T05:08:53;94392.00;;;-7.10
10598;BMP180;5346;48.766;8.674;2024-01-10T05:11:31;94396.00;;;-7.40
10598;BMP180;5346;48.766;8.674;2024-01-10T05:13:59;94394.00;;;-7.40
10598;BMP180;5346;48.766;8.674;2024-01-10T05:16:26;94394.00;;;-7.50
10598;BMP180;5346;48.766;8.674;2024-01-10T05:19:03;94396.00;;;-7.40
10598;BMP180;5346;48.766;8.674;2024-01-10T05:21:38;94404.00;;;-7.40
10598;BMP180;5346;48.766;8.674;2024-01-10T05:24:19;94405.00;;;-7.40
10598;BMP180;5346;48.766;8.674;2024-01-10T05:26:47;94400.00;;;-7.50
10598;BMP180;5346;48.766;8.674;2024-01-10T05:29:25;94398.00;;;-7.60
10598;BMP180;5346;48.766;8.674;2024-01-10T05:31:53;94404.00;;;-7.70
10598;BMP180;5346;48.766;8.674;2024-01-10T05:34:27;94401.00;;;-7.80
10598;BMP180;5346;48.766;8.674;2024-01-10T05:36:54;94401.00;;;-7.90
10598;BMP180;5346;48.766;8.674;2024-01-10T05:39:29;94415.00;;;-7.90
10598;BMP180;5346;48.766;8.674;2024-01-10T05:42:06;94409.00;;;-8.10
10598;BMP180;5346;48.766;8.674;2024-01-10T05:44:40;94415.00;;;-8.30
10598;BMP180;5346;48.766;8.674;2024-01-10T05:47:08;94419.00;;;-8.30
10598;BMP180;5346;48.766;8.674;2024-01-10T05:49:43;94413.00;;;-8.40
10598;BMP180;5346;48.766;8.674;2024-01-10T05:52:11;94409.00;;;-8.50
10598;BMP180;5346;48.766;8.674;2024-01-10T05:54:46;94400.00;;;-8.70
10598;BMP180;5346;48.766;8.674;2024-01-10T05:57:16;94413.00;;;-8.70
10598;BMP180;5346;48.766;8.674;2024-01-10T05:59:43;94412.00;;;-8.60
10598;BMP180;5346;48.766;8.674;2024-01-10T06:02:18;94412.00;;;-8.60
10598;BMP180;5346;48.766;8.674;2024-01-10T06:04:52;94421.00;;;-8.70
10598;BMP180;5346;48.766;8.674;2024-01-10T06:07:29;94408.00;;;-8.70
10598;BMP180;5346;48.766;8.674;2024-01-10T06:10:04;94414.00;;;-8.60
10598;BMP180;5346;48.766;8.674;2024-01-10T06:12:38;94406.00;;;-8.50
10598;BMP180;5346;48.766;8.674;2024-01-10T06:15:06;94407.00;;;-8.60
10598;BMP180;5346;48.766;8.674;2024-01-10T06:17:42;94405.00;;;-8.70
10598;BMP180;5346;48.766;8.674;2024-01-10T06:20:16;94405.00;;;-8.70
10598;BMP180;5346;48.766;8.674;2024-01-10T06:22:44;94396.00;;;-8.70
10598;BMP180;5346;48.766;8.674;2024-01-10T06:25:20;94406.00;;;-8.90
10598;BMP180;5346;48.766;8.674;2024-01-10T06:27:54;94413.00;;;-9.10
10598;BMP180;5346;48.766;8.674;2024-01-10T06:30:28;94406.00;;;-9.10
10598;BMP180;5346;48.766;8.674;2024-01-10T06:32:55;94405.00;;;-9.10
10598;BMP180;5346;48.766;8.674;2024-01-10T06:35:30;94403.00;;;-9.20
10598;BMP180;5346;48.766;8.674;2024-01-10T06:38:04;94402.00;;;-9.30
10598;BMP180;5346;48.766;8.674;2024-01-10T06:40:32;94406.00;;;-9.30
10598;BMP180;5346;48.766;8.674;2024-01-10T06:43:06;94408.00;;;-9.40
10598;BMP180;5346;48.766;8.674;2024-01-10T06:45:42;94409.00;;;-9.50
10598;BMP180;5346;48.766;8.674;2024-01-10T06:48:10;94412.00;;;-9.50
10598;BMP180;5346;48.766;8.674;2024-01-10T06:50:44;94420.00;;;-9.40
10598;BMP180;5346;48.766;8.674;2024-01-10T06:53:13;94405.00;;;-9.50
10598;BMP180;5346;48.766;8.674;2024-01-10T06:55:48;94424.00;;;-9.50
10598;BMP180;5346;48.766;8.674;2024-01-10T06:58:16;94415.00;;;-9.60
10598;BMP180;5346;48.766;8.674;2024-01-10T07:00:50;94429.00;;;-9.60
10598;BMP180;5346;48.766;8.674;2024-01-10T07:03:24;94434.00;;;-9.70
10598;BMP180;5346;48.766;8.674;2024-01-10T07:05:58;94424.00;;;-9.70
10598;BMP180;5346;48.766;8.674;2024-01-10T07:08:32;94440.00;;;-9.50
10598;BMP180;5346;48.766;8.674;2024-01-10T07:11:06;94446.00;;;-9.30
10598;BMP180;5346;48.766;8.674;2024-01-10T07:13:41;94451.00;;;-9.40
10598;BMP180;5346;48.766;8.674;2024-01-10T07:16:09;94454.00;;;-9.30
10598;BMP180;5346;48.766;8.674;2024-01-10T07:18:44;94445.00;;;-9.00
10598;BMP180;5346;48.766;8.674;2024-01-10T07:21:20;94442.00;;;-8.80
10598;BMP180;5346;48.766;8.674;2024-01-10T07:24:01;94447.00;;;-8.60
10598;BMP180;5346;48.766;8.674;2024-01-10T07:26:38;94445.00;;;-8.60
10598;BMP180;5346;48.766;8.674;2024-01-10T07:29:12;94445.00;;;-8.50
10598;BMP180;5346;48.766;8.674;2024-01-10T07:31:40;94450.00;;;-8.40
10598;BMP180;5346;48.766;8.674;2024-01-10T07:34:18;94449.00;;;-8.50
10598;BMP180;5346;48.766;8.674;2024-01-10T07:36:52;94437.00;;;-8.50
10598;BMP180;5346;48.766;8.674;2024-01-10T07:39:28;94449.00;;;-8.40
10598;BMP180;5346;48.766;8.674;2024-01-10T07:42:02;94446.00;;;-8.30
10598;BMP180;5346;48.766;8.674;2024-01-10T07:44:36;94439.00;;;-8.40
10598;BMP180;5346;48.766;8.674;2024-01-10T07:47:04;94451.00;;;-8.30
10598;BMP180;5346;48.766;8.674;2024-01-10T07:49:41;94450.00;;;-8.10
10598;BMP180;5346;48.766;8.674;2024-01-10T07:52:09;94454.00;;;-7.80
10598;BMP180;5346;48.766;8.674;2024-01-10T07:54:43;94469.00;;;-7.50
10598;BMP180;5346;48.766;8.674;2024-01-10T07:57:11;94463.00;;;-7.20
10598;BMP180;5346;48.766;8.674;2024-01-10T07:59:46;94465.00;;;-7.10
10598;BMP180;5346;48.766;8.674;2024-01-10T08:02:14;94453.00;;;-6.70
10598;BMP180;5346;48.766;8.674;2024-01-10T08:04:43;94459.00;;;-6.30
10598;BMP180;5346;48.766;8.674;2024-01-10T08:07:17;94451.00;;;-6.30
10598;BMP180;5346;48.766;8.674;2024-01-10T08:09:45;94461.00;;;-5.80
10598;BMP180;5346;48.766;8.674;2024-01-10T08:12:19;94450.00;;;-5.40
10598;BMP180;5346;48.766;8.674;2024-01-10T08:14:47;94458.00;;;-4.60
10598;BMP180;5346;48.766;8.674;2024-01-10T08:17:24;94455.00;;;-3.90
10598;BMP180;5346;48.766;8.674;2024-01-10T08:19:53;94456.00;;;-3.50
10598;BMP180;5346;48.766;8.674;2024-01-10T08:22:27;94461.00;;;-3.30
10598;BMP180;5346;48.766;8.674;2024-01-10T08:25:02;94459.00;;;-3.20
10598;BMP180;5346;48.766;8.674;2024-01-10T08:27:37;94455.00;;;-2.10
10598;BMP180;5346;48.766;8.674;2024-01-10T08:30:13;94459.00;;;-2.30
10598;BMP180;5346;48.766;8.674;2024-01-10T08:32:41;94459.00;;;-1.70
10598;BMP180;5346;48.766;8.674;2024-01-10T08:35:15;94461.00;;;-2.00
10598;BMP180;5346;48.766;8.674;2024-01-10T08:37:44;94458.00;;;-2.10
10598;BMP180;5346;48.766;8.674;2024-01-10T08:40:18;94455.00;;;-1.40
10598;BMP180;5346;48.766;8.674;2024-01-10T08:42:55;94463.00;;;-1.70
10598;BMP180;5346;48.766;8.674;2024-01-10T08:45:24;94459.00;;;-0.80
10598;BMP180;5346;48.766;8.674;2024-01-10T08:47:58;94454.00;;;-1.40
10598;BMP180;5346;48.766;8.674;2024-01-10T08:50:27;94449.00;;;-1.20
10598;BMP180;5346;48.766;8.674;2024-01-10T08:53:02;94448.00;;;-1.60
10598;BMP180;5346;48.766;8.674;2024-01-10T08:55:33;94463.00;;;-1.70
10598;BMP180;5346;48.766;8.674;2024-01-10T08:58:08;94464.00;;;-2.20
10598;BMP180;5346;48.766;8.674;2024-01-10T09:00:43;94475.00;;;-1.50
10598;BMP180;5346;48.766;8.674;2024-01-10T09:03:18;94485.00;;;-1.40
10598;BMP180;5346;48.766;8.674;2024-01-10T09:05:47;94473.00;;;-0.40
10598;BMP180;5346;48.766;8.674;2024-01-10T09:08:35;94481.00;;;-1.00
10598;BMP180;5346;48.766;8.674;2024-01-10T09:11:09;94478.00;;;-0.60
10598;BMP180;5346;48.766;8.674;2024-01-10T09:13:44;94475.00;;;-1.10
10598;BMP180;5346;48.766;8.674;2024-01-10T09:16:19;94487.00;;;-0.90
10598;BMP180;5346;48.766;8.674;2024-01-10T09:18:47;94483.00;;;-0.70
10598;BMP180;5346;48.766;8.674;2024-01-10T09:21:19;94495.00;;;0.00
10598;BMP180;5346;48.766;8.674;2024-01-10T09:23:55;94503.00;;;-0.20
10598;BMP180;5346;48.766;8.674;2024-01-10T09:26:45;94490.00;;;-0.30
10598;BMP180;5346;48.766;8.674;2024-01-10T09:29:19;94487.00;;;0.30
10598;BMP180;5346;48.766;8.674;2024-01-10T09:31:54;94497.00;;;1.10
10598;BMP180;5346;48.766;8.674;2024-01-10T09:34:23;94496.00;;;0.90
10598;BMP180;5346;48.766;8.674;2024-01-10T09:37:01;94509.00;;;0.50
10598;BMP180;5346;48.766;8.674;2024-01-10T09:39:36;94507.00;;;0.00
10598;BMP180;5346;48.766;8.674;2024-01-10T09:42:11;94503.00;;;0.40
10598;BMP180;5346;48.766;8.674;2024-01-10T09:44:42;94513.00;;;1.20
10598;BMP180;5346;48.766;8.674;2024-01-10T09:47:23;94498.00;;;1.60
10598;BMP180;5346;48.766;8.674;2024-01-10T09:49:52;94507.00;;;0.30
10598;BMP180;5346;48.766;8.674;2024-01-10T09:52:27;94517.00;;;0.10
10598;BMP180;5346;48.766;8.674;2024-01-10T09:55:04;94512.00;;;0.40
10598;BMP180;5346;48.766;8.674;2024-01-10T09:57:33;94507.00;;;0.70
10598;BMP180;5346;48.766;8.674;2024-01-10T10:00:12;94509.00;;;1.00
10598;BMP180;5346;48.766;8.674;2024-01-10T10:02:45;94503.00;;;1.60
10598;BMP180;5346;48.766;8.674;2024-01-10T10:05:22;94508.00;;;1.90
10598;BMP180;5346;48.766;8.674;2024-01-10T10:07:52;94514.00;;;1.50
10598;BMP180;5346;48.766;8.674;2024-01-10T10:10:32;94504.00;;;1.00
10598;BMP180;5346;48.766;8.674;2024-01-10T10:13:07;94508.00;;;1.90
10598;BMP180;5346;48.766;8.674;2024-01-10T10:15:42;94504.00;;;2.70
10598;BMP180;5346;48.766;8.674;2024-01-10T10:18:15;94509.00;;;2.20
10598;BMP180;5346;48.766;8.674;2024-01-10T10:20:49;94514.00;;;3.30
10598;BMP180;5346;48.766;8.674;2024-01-10T10:24:01;94507.00;;;2.70
10598;BMP180;5346;48.766;8.674;2024-01-10T10:26:36;94498.00;;;2.70
10598;BMP180;5346;48.766;8.674;2024-01-10T10:29:10;94509.00;;;3.30
10598;BMP180;5346;48.766;8.674;2024-01-10T10:31:48;94505.00;;;2.90
10598;BMP180;5346;48.766;8.674;2024-01-10T10:34:23;94503.00;;;2.50
10598;BMP180;5346;48.766;8.674;2024-01-10T10:37:00;94507.00;;;3.30
10598;BMP180;5346;48.766;8.674;2024-01-10T10:39:28;94515.00;;;3.30
10598;BMP180;5346;48.766;8.674;2024-01-10T10:42:02;94511.00;;;2.90
10598;BMP180;5346;48.766;8.674;2024-01-10T10:44:39;94509.00;;;3.30
10598;BMP180;5346;48.766;8.674;2024-01-10T10:47:10;94504.00;;;4.20
10598;BMP180;5346;48.766;8.674;2024-01-10T10:49:51;94509.00;;;3.60
10598;BMP180;5346;48.766;8.674;2024-01-10T10:52:26;94511.00;;;4.20
10598;BMP180;5346;48.766;8.674;2024-01-10T10:55:03;94502.00;;;4.30
10598;BMP180;5346;48.766;8.674;2024-01-10T10:57:32;94503.00;;;4.00
10598;BMP180;5346;48.766;8.674;2024-01-10T11:00:08;94506.00;;;4.60
10598;BMP180;5346;48.766;8.674;2024-01-10T11:02:39;94502.00;;;4.20
10598;BMP180;5346;48.766;8.674;2024-01-10T11:05:14;94507.00;;;4.10
10598;BMP180;5346;48.766;8.674;2024-01-10T11:07:44;94500.00;;;5.50
10598;BMP180;5346;48.766;8.674;2024-01-10T11:10:28;94504.00;;;4.70
10598;BMP180;5346;48.766;8.674;2024-01-10T11:24:27;94518.00;;;4.30
10598;BMP180;5346;48.766;8.674;2024-01-10T11:27:14;94514.00;;;6.10
10598;BMP180;5346;48.766;8.674;2024-01-10T11:29:51;94512.00;;;6.30
10598;BMP180;5346;48.766;8.674;2024-01-10T11:32:27;94520.00;;;6.20
10598;BMP180;5346;48.766;8.674;2024-01-10T11:34:59;94516.00;;;6.20
10598;BMP180;5346;48.766;8.674;2024-01-10T11:37:45;94502.00;;;6.20
10598;BMP180;5346;48.766;8.674;2024-01-10T11:40:45;94503.00;;;5.70
10598;BMP180;5346;48.766;8.674;2024-01-10T11:43:22;94506.00;;;5.60
10598;BMP180;5346;48.766;8.674;2024-01-10T11:45:57;94503.00;;;5.30
10598;BMP180;5346;48.766;8.674;2024-01-10T11:48:32;94499.00;;;6.50
10598;BMP180;5346;48.766;8.674;2024-01-10T11:51:00;94505.00;;;6.10
10598;BMP180;5346;48.766;8.674;2024-01-10T11:53:42;94509.00;;;5.80
10598;BMP180;5346;48.766;8.674;2024-01-10T11:56:11;94512.00;;;4.80
10598;BMP180;5346;48.766;8.674;2024-01-10T11:59:03;94517.00;;;6.20
10598;BMP180;5346;48.766;8.674;2024-01-10T12:01:45;94520.00;;;5.10
10598;BMP180;5346;48.766;8.674;2024-01-10T12:04:13;94517.00;;;5.80
10598;BMP180;5346;48.766;8.674;2024-01-10T12:07:03;94524.00;;;6.50
10598;BMP180;5346;48.766;8.674;2024-01-10T12:09:39;94517.00;;;6.50
10598;BMP180;5346;48.766;8.674;2024-01-10T12:12:14;94518.00;;;6.10
10598;BMP180;5346;48.766;8.674;2024-01-10T12:14:51;94515.00;;;6.10
10598;BMP180;5346;48.766;8.674;2024-01-10T12:17:28;94514.00;;;7.00
10598;BMP180;5346;48.766;8.674;2024-01-10T12:20:03;94512.00;;;6.90
10598;BMP180;5346;48.766;8.674;2024-01-10T12:22:44;94523.00;;;7.00
10598;BMP180;5346;48.766;8.674;2024-01-10T12:25:26;94521.00;;;6.70
10598;BMP180;5346;48.766;8.674;2024-01-10T12:28:06;94524.00;;;6.60
10598;BMP180;5346;48.766;8.674;2024-01-10T12:30:40;94521.00;;;6.90
10598;BMP180;5346;48.766;8.674;2024-01-10T12:33:17;94515.00;;;7.00
10598;BMP180;5346;48.766;8.674;2024-01-10T12:36:06;94510.00;;;7.00
10598;BMP180;5346;48.766;8.674;2024-01-10T12:38:41;94518.00;;;6.70
10598;BMP180;5346;48.766;8.674;2024-01-10T12:41:09;94524.00;;;7.00
10598;BMP180;5346;48.766;8.674;2024-01-10T12:43:37;94516.00;;;7.20
10598;BMP180;5346;48.766;8.674;2024-01-10T12:46:12;94512.00;;;7.60
10598;BMP180;5346;48.766;8.674;2024-01-10T12:48:41;94514.00;;;6.60
10598;BMP180;5346;48.766;8.674;2024-01-10T12:51:16;94506.00;;;6.70
10598;BMP180;5346;48.766;8.674;2024-01-10T12:53:44;94503.00;;;7.60
10598;BMP180;5346;48.766;8.674;2024-01-10T12:56:19;94508.00;;;7.60
10598;BMP180;5346;48.766;8.674;2024-01-10T12:58:54;94508.00;;;6.80
10598;BMP180;5346;48.766;8.674;2024-01-10T13:01:29;94517.00;;;7.30
10598;BMP180;5346;48.766;8.674;2024-01-10T13:03:57;94508.00;;;6.20
10598;BMP180;5346;48.766;8.674;2024-01-10T13:06:26;94508.00;;;6.70
10598;BMP180;5346;48.766;8.674;2024-01-10T13:09:02;94515.00;;;7.10
10598;BMP180;5346;48.766;8.674;2024-01-10T13:11:31;94508.00;;;6.90
10598;BMP180;5346;48.766;8.674;2024-01-10T13:14:08;94513.00;;;6.60
10598;BMP180;5346;48.766;8.674;2024-01-10T13:16:54;94515.00;;;6.10
10598;BMP180;5346;48.766;8.674;2024-01-10T13:19:29;94514.00;;;7.10
10598;BMP180;5346;48.766;8.674;2024-01-10T13:22:03;94507.00;;;7.20
10598;BMP180;5346;48.766;8.674;2024-01-10T13:24:46;94517.00;;;7.70
10598;BMP180;5346;48.766;8.674;2024-01-10T13:27:14;94517.00;;;7.30
10598;BMP180;5346;48.766;8.674;2024-01-10T13:29:48;94527.00;;;7.00
10598;BMP180;5346;48.766;8.674;2024-01-10T13:32:16;94528.00;;;7.70
10598;BMP180;5346;48.766;8.674;2024-01-10T13:34:51;94524.00;;;7.20
10598;BMP180;5346;48.766;8.674;2024-01-10T13:37:25;94526.00;;;7.00
10598;BMP180;5346;48.766;8.674;2024-01-10T13:40:03;94524.00;;;6.00
10598;BMP180;5346;48.766;8.674;2024-01-10T13:42:43;94517.00;;;7.20
10598;BMP180;5346;48.766;8.674;2024-01-10T13:45:17;94530.00;;;6.50
10598;BMP180;5346;48.766;8.674;2024-01-10T13:47:47;94529.00;;;6.90
10598;BMP180;5346;48.766;8.674;2024-01-10T13:50:25;94539.00;;;7.00
10598;BMP180;5346;48.766;8.674;2024-01-10T13:52:53;94535.00;;;7.60
10598;BMP180;5346;48.766;8.674;2024-01-10T13:55:22;94547.00;;;7.40
10598;BMP180;5346;48.766;8.674;2024-01-10T13:57:58;94533.00;;;8.00
10598;BMP180;5346;48.766;8.674;2024-01-10T14:00:26;94541.00;;;7.30
10598;BMP180;5346;48.766;8.674;2024-01-10T14:03:01;94548.00;;;6.60
10598;BMP180;5346;48.766;8.674;2024-01-10T14:05:29;94546.00;;;7.20
10598;BMP180;5346;48.766;8.674;2024-01-10T14:08:04;94552.00;;;6.70
10598;BMP180;5346;48.766;8.674;2024-01-10T14:10:31;94553.00;;;7.20
10598;BMP180;5346;48.766;8.674;2024-01-10T14:13:06;94546.00;;;7.30
10598;BMP180;5346;48.766;8.674;2024-01-10T14:15:34;94549.00;;;6.90
10598;BMP180;5346;48.766;8.674;2024-01-10T14:18:09;94554.00;;;5.40
10598;BMP180;5346;48.766;8.674;2024-01-10T14:20:38;94561.00;;;6.50
10598;BMP180;5346;48.766;8.674;2024-01-10T14:23:12;94558.00;;;6.40
10598;BMP180;5346;48.766;8.674;2024-01-10T14:25:47;94558.00;;;6.90
10598;BMP180;5346;48.766;8.674;2024-01-10T14:28:29;94560.00;;;6.30
10598;BMP180;5346;48.766;8.674;2024-01-10T14:31:03;94562.00;;;5.50
10598;BMP180;5346;48.766;8.674;2024-01-10T14:33:54;94561.00;;;5.00
10598;BMP180;5346;48.766;8.674;2024-01-10T14:36:31;94572.00;;;5.30
10598;BMP180;5346;48.766;8.674;2024-01-10T14:38:59;94566.00;;;4.60
10598;BMP180;5346;48.766;8.674;2024-01-10T14:41:34;94568.00;;;4.60
10598;BMP180;5346;48.766;8.674;2024-01-10T14:44:02;94567.00;;;4.60
10598;BMP180;5346;48.766;8.674;2024-01-10T14:46:38;94572.00;;;4.80
10598;BMP180;5346;48.766;8.674;2024-01-10T14:49:19;94579.00;;;3.80
10598;BMP180;5346;48.766;8.674;2024-01-10T14:51:55;94579.00;;;2.00
10598;BMP180;5346;48.766;8.674;2024-01-10T14:54:23;94565.00;;;0.70
10598;BMP180;5346;48.766;8.674;2024-01-10T14:56:57;94578.00;;;0.20
10598;BMP180;5346;48.766;8.674;2024-01-10T14:59:26;94578.00;;;-0.10
10598;BMP180;5346;48.766;8.674;2024-01-10T15:02:12;94585.00;;;-0.60
10598;BMP180;5346;48.766;8.674;2024-01-10T15:04:47;94591.00;;;-0.70
10598;BMP180;5346;48.766;8.674;2024-01-10T15:07:21;94592.00;;;-0.90
10598;BMP180;5346;48.766;8.674;2024-01-10T15:09:56;94596.00;;;-0.90
10598;BMP180;5346;48.766;8.674;2024-01-10T15:12:32;94590.00;;;-1.10
10598;BMP180;5346;48.766;8.674;2024-01-10T15:15:01;94600.00;;;-1.20